Time;durP1;ratioP1;P1;durP2;ratioP2;P2;SDS_P1;SDS_P2;PMS_P1;PMS_P2;Temp;Humidity;BMP_temperature;BMP_pressure;BME280_temperature;BME280_humidity;BME280_pressure;Samples;Min_cycle;Max_cycle;Signal;HPM_P1;HPM_P2
2023/06/07 00:00:10;;;;;;;4.93;3.90;;;;;;;15.49;100.00;96375.88;5008113;28;103654;-61
2023/06/07 00:02:43;;;;;;;4.27;3.87;;;;;;;15.37;100.00;96362.81;5007860;28;102793;-61
2023/06/07 00:05:14;;;;;;;5.33;3.70;;;;;;;15.26;100.00;96368.53;5008022;28;102084;-61
2023/06/07 00:07:41;;;;;;;12.83;8.40;;;;;;;15.27;100.00;96364.75;5008356;28;104075;-61
2023/06/07 00:10:09;;;;;;;5.37;4.17;;;;;;;15.20;100.00;96356.25;5007519;28;105439;-61
2023/06/07 00:12:37;;;;;;;4.23;3.83;;;;;;;15.22;100.00;96354.09;5007929;28;101946;-61
2023/06/07 00:15:05;;;;;;;4.33;3.93;;;;;;;15.08;100.00;96348.56;5008097;28;104811;-61
2023/06/07 00:17:32;;;;;;;4.23;3.83;;;;;;;15.07;100.00;96352.31;5007404;28;105363;-61
2023/06/07 00:20:00;;;;;;;4.10;3.80;;;;;;;15.03;100.00;96351.28;5011492;28;102073;-61
2023/06/07 00:22:29;;;;;;;4.23;3.57;;;;;;;15.05;100.00;96348.31;5007378;28;104568;-61
2023/06/07 00:24:56;;;;;;;4.20;3.80;;;;;;;15.02;100.00;96348.88;5007910;28;101971;-61
2023/06/07 00:27:22;;;;;;;4.53;3.90;;;;;;;14.94;100.00;96339.53;5008016;28;105101;-61
2023/06/07 00:29:49;;;;;;;4.03;3.70;;;;;;;14.93;100.00;96340.63;5007564;28;105848;-61
2023/06/07 00:32:16;;;;;;;4.13;3.83;;;;;;;14.96;100.00;96349.97;5011259;28;101942;-61
2023/06/07 00:34:43;;;;;;;4.93;4.00;;;;;;;14.85;100.00;96348.44;5011134;28;104819;-61
2023/06/07 00:37:10;;;;;;;4.67;4.27;;;;;;;14.78;100.00;96353.31;5010684;28;105460;-61
2023/06/07 00:39:39;;;;;;;4.93;4.20;;;;;;;14.81;100.00;96342.03;5014664;28;101875;-61
2023/06/07 00:42:06;;;;;;;4.70;4.30;;;;;;;14.81;100.00;96342.03;5010657;28;105365;-61
2023/06/07 00:44:34;;;;;;;4.87;4.37;;;;;;;14.81;100.00;96348.22;5010096;28;103006;-61
2023/06/07 00:47:02;;;;;;;6.63;4.07;;;;;;;14.79;100.00;96338.84;5010875;28;104785;-61
2023/06/07 00:49:29;;;;;;;3.70;3.40;;;;;;;14.37;100.00;96341.22;4993819;28;106610;-61
2023/06/07 00:51:56;;;;;;;3.90;3.60;;;;;;;14.31;100.00;96339.66;5010503;28;102082;-61
2023/06/07 00:54:23;;;;;;;3.80;3.40;;;;;;;14.22;100.00;96344.00;5011192;28;103826;-61
2023/06/07 00:56:52;;;;;;;4.60;3.97;;;;;;;14.28;100.00;96342.88;5010125;28;105169;-61
2023/06/07 00:59:21;;;;;;;3.70;3.50;;;;;;;14.26;100.00;96340.47;5011023;28;102096;-61
2023/06/07 01:01:51;;;;;;;3.67;3.37;;;;;;;14.21;100.00;96347.72;5013685;28;105093;-61
2023/06/07 01:04:20;;;;;;;4.07;3.67;;;;;;;14.19;100.00;96341.81;5011007;28;101994;-61
2023/06/07 01:06:49;;;;;;;4.13;3.73;;;;;;;14.11;100.00;96347.75;5010618;28;105052;-61
2023/06/07 01:09:17;;;;;;;3.73;3.43;;;;;;;13.99;100.00;96333.84;5010375;28;105079;-61
2023/06/07 01:11:47;;;;;;;3.73;3.43;;;;;;;13.70;100.00;96341.72;5010698;28;101890;-61
2023/06/07 01:14:17;;;;;;;4.20;3.70;;;;;;;13.61;100.00;96332.63;5010934;28;105038;-61
2023/06/07 01:16:48;;;;;;;4.60;4.20;;;;;;;13.36;100.00;96331.88;5010029;28;105054;-61
2023/06/07 01:19:18;;;;;;;4.70;4.30;;;;;;;13.39;100.00;96334.00;5010472;28;101888;-61
2023/06/07 01:21:47;;;;;;;4.23;3.83;;;;;;;13.41;100.00;96337.22;5010634;28;105335;-61
2023/06/07 01:24:18;;;;;;;4.17;3.87;;;;;;;13.47;100.00;96341.47;5013450;28;105680;-61
2023/06/07 01:26:45;;;;;;;4.00;3.70;;;;;;;13.49;100.00;96340.13;5010459;28;104314;-61
2023/06/07 01:29:15;;;;;;;4.07;3.67;;;;;;;13.55;100.00;96331.03;5009563;28;103758;-61
2023/06/07 01:31:44;;;;;;;4.10;3.70;;;;;;;13.59;100.00;96333.97;5011568;28;102153;-61
2023/06/07 01:34:13;;;;;;;4.47;3.80;;;;;;;13.64;100.00;96331.28;5011741;28;102327;-61
2023/06/07 01:36:41;;;;;;;4.20;3.80;;;;;;;13.63;100.00;96327.03;5009653;28;105375;-61
2023/06/07 01:39:10;;;;;;;4.23;3.83;;;;;;;13.67;100.00;96325.38;5010378;28;101842;-61
2023/06/07 01:41:40;;;;;;;3.90;3.60;;;;;;;13.64;100.00;96326.75;5009110;28;105431;-61
2023/06/07 01:44:06;;;;;;;5.30;3.97;;;;;;;13.55;100.00;96328.38;5010286;28;103890;-61
2023/06/07 01:46:35;;;;;;;4.27;3.87;;;;;;;13.48;100.00;96327.03;5013476;28;101881;-61
2023/06/07 01:49:04;;;;;;;4.57;3.87;;;;;;;13.42;100.00;96328.13;5009618;28;103849;-61
2023/06/07 01:51:32;;;;;;;6.10;3.90;;;;;;;13.46;100.00;96323.84;5010076;28;102069;-61
2023/06/07 01:54:00;;;;;;;4.30;3.97;;;;;;;13.44;100.00;96326.78;5009970;28;105749;-61
2023/06/07 01:56:38;;;;;;;4.73;4.17;;;;;;;13.39;100.00;96323.31;5009358;28;105934;-61
2023/06/07 01:59:15;;;;;;;5.63;4.53;;;;;;;13.30;100.00;96322.28;5009885;28;101821;-61
2023/06/07 02:01:48;;;;;;;4.80;4.33;;;;;;;13.28;100.00;96317.19;5009981;28;104794;-61
2023/06/07 02:04:20;;;;;;;4.77;4.27;;;;;;;13.32;100.00;96328.13;5009274;28;105689;-61
2023/06/07 02:06:51;;;;;;;4.27;3.87;;;;;;;13.22;100.00;96323.59;5009865;28;101875;-61
2023/06/07 02:09:21;;;;;;;3.90;3.60;;;;;;;13.18;100.00;96321.72;5012868;28;103657;-61
2023/06/07 02:11:49;;;;;;;4.43;4.03;;;;;;;13.10;100.00;96327.59;5009560;28;102110;-61
2023/06/07 02:14:20;;;;;;;4.70;4.30;;;;;;;13.01;100.00;96324.69;5026407;28;105105;-61
2023/06/07 02:16:48;;;;;;;4.10;3.70;;;;;;;12.80;100.00;96330.25;5010814;28;103348;-61
2023/06/07 02:19:16;;;;;;;4.17;3.87;;;;;;;12.65;100.00;96335.56;5009754;28;102082;-61
2023/06/07 02:21:50;;;;;;;4.63;4.20;;;;;;;12.51;100.00;96335.25;5009566;28;104047;-61
2023/06/07 02:24:17;;;;;;;4.50;4.10;;;;;;;12.36;100.00;96334.41;5008713;28;105139;-61
2023/06/07 02:26:44;;;;;;;4.53;4.13;;;;;;;12.28;100.00;96327.72;5009529;28;101929;-61
2023/06/07 02:29:11;;;;;;;5.37;4.43;;;;;;;12.36;100.00;96331.72;5009540;28;105488;-61
2023/06/07 02:31:39;;;;;;;4.67;4.13;;;;;;;12.34;100.00;96336.53;5012401;28;105116;-61
2023/06/07 02:34:06;;;;;;;4.93;4.53;;;;;;;12.31;100.00;96337.84;5009382;28;105090;-61
2023/06/07 02:36:33;;;;;;;5.07;4.57;;;;;;;12.34;100.00;96339.19;5008800;28;103980;-61
2023/06/07 02:39:00;;;;;;;5.30;4.80;;;;;;;12.26;100.00;96340.50;5009444;28;102016;-61
2023/06/07 02:41:27;;;;;;;5.40;4.63;;;;;;;12.24;100.00;96339.16;5009247;28;105255;-61
2023/06/07 02:43:56;;;;;;;5.80;4.60;;;;;;;12.27;100.00;96339.44;5008382;28;105124;-61
2023/06/07 02:46:23;;;;;;;5.13;4.63;;;;;;;12.30;100.00;96338.94;5009472;28;101855;-61
2023/06/07 02:48:52;;;;;;;5.23;4.47;;;;;;;12.24;100.00;96347.16;5010736;28;102940;-61
2023/06/07 02:51:19;;;;;;;5.93;5.37;;;;;;;12.11;100.00;96342.31;5011881;28;105610;-61
2023/06/07 02:53:49;;;;;;;4.93;4.53;;;;;;;12.03;100.00;96350.81;5008835;28;103630;-61
2023/06/07 02:56:18;;;;;;;5.20;4.70;;;;;;;12.17;100.00;96346.59;5008465;28;106257;-61
2023/06/07 02:58:45;;;;;;;5.73;5.10;;;;;;;12.19;100.00;96336.47;5009082;28;101943;-61
2023/06/07 03:01:12;;;;;;;5.20;4.80;;;;;;;12.09;100.00;96344.44;5008923;28;104884;-61
2023/06/07 03:03:45;;;;;;;5.10;4.70;;;;;;;12.18;100.00;96343.69;5008540;28;105612;-61
2023/06/07 03:06:15;;;;;;;5.77;5.27;;;;;;;12.32;100.00;96352.00;5009060;28;101894;-61
2023/06/07 03:08:43;;;;;;;5.83;5.33;;;;;;;12.38;100.00;96356.28;5008786;28;105426;-61
2023/06/07 03:11:13;;;;;;;5.40;5.00;;;;;;;12.43;100.00;96357.09;5008361;28;105219;-61
2023/06/07 03:13:44;;;;;;;5.50;5.00;;;;;;;12.47;100.00;96352.84;5012469;28;102331;-61
2023/06/07 03:16:14;;;;;;;5.57;5.13;;;;;;;12.48;100.00;96359.78;5008106;28;105976;-61
2023/06/07 03:18:58;;;;;;;5.43;4.93;;;;;;;12.54;100.00;96363.28;5009046;28;101911;-61
2023/06/07 03:21:28;;;;;;;6.37;5.80;;;;;;;12.53;100.00;96361.66;5008717;28;105988;-61
2023/06/07 03:23:58;;;;;;;6.17;5.13;;;;;;;12.51;100.00;96363.78;5009713;28;102638;-61
2023/06/07 03:26:25;;;;;;;5.90;5.30;;;;;;;12.48;100.00;96362.44;5008542;28;101981;-61
2023/06/07 03:28:56;;;;;;;7.90;5.40;;;;;;;12.51;100.00;96358.44;5008787;28;105252;-61
2023/06/07 03:31:28;;;;;;;6.53;4.97;;;;;;;12.51;100.00;96363.78;5007791;28;104371;-61
2023/06/07 03:34:00;;;;;;;5.60;5.00;;;;;;;12.56;100.00;96366.47;5010200;28;101835;-61
2023/06/07 03:36:30;;;;;;;5.37;4.87;;;;;;;12.61;100.00;96369.16;5011270;28;104665;-61
2023/06/07 03:39:00;;;;;;;5.77;5.27;;;;;;;12.65;100.00;96370.22;5008755;28;101937;-61
2023/06/07 03:41:28;;;;;;;5.50;5.00;;;;;;;12.72;100.00;96371.59;5008510;28;105230;-61
2023/06/07 03:43:57;;;;;;;5.70;5.10;;;;;;;12.80;100.00;96367.59;5007193;28;105086;-61
2023/06/07 03:46:25;;;;;;;8.53;5.63;;;;;;;12.82;100.00;96363.56;5008372;28;101940;-61
2023/06/07 03:48:53;;;;;;;5.67;5.13;;;;;;;12.84;100.00;96371.31;5008476;28;105240;-61
2023/06/07 03:51:21;;;;;;;5.80;5.23;;;;;;;12.77;100.00;96374.28;5007704;28;105252;-61
2023/06/07 03:53:50;;;;;;;5.57;5.07;;;;;;;12.82;100.00;96376.13;5008354;28;101989;-61
2023/06/07 03:56:17;;;;;;;5.70;5.17;;;;;;;12.97;100.00;96378.88;4991686;28;105670;-61
2023/06/07 03:58:45;;;;;;;7.47;4.93;;;;;;;12.96;100.00;96380.72;5012298;28;102568;-61
2023/06/07 04:01:16;;;;;;;5.50;4.93;;;;;;;12.98;100.00;96383.91;5008155;28;105349;-61
2023/06/07 04:03:44;;;;;;;4.77;4.33;;;;;;;13.03;100.00;96381.25;5007658;28;105898;-61
2023/06/07 04:06:12;;;;;;;5.87;4.90;;;;;;;13.11;100.00;96379.94;5010686;28;101921;-61
2023/06/07 04:08:39;;;;;;;6.57;4.83;;;;;;;13.16;100.00;96372.75;5011508;28;105056;-61
2023/06/07 04:11:07;;;;;;;6.47;4.93;;;;;;;13.23;100.00;96380.47;5011192;28;105333;-61
2023/06/07 04:13:34;;;;;;;5.73;4.90;;;;;;;13.21;100.00;96386.09;5011618;28;101862;-61
2023/06/07 04:16:01;;;;;;;7.03;5.10;;;;;;;13.11;100.00;96388.75;5011629;28;104958;-61
2023/06/07 04:18:28;;;;;;;5.53;5.00;;;;;;;13.22;100.00;96386.88;5010817;28;105719;-61
2023/06/07 04:20:55;;;;;;;6.60;5.30;;;;;;;13.33;100.00;96386.63;5015003;28;101953;-61
2023/06/07 04:23:23;;;;;;;5.87;5.33;;;;;;;13.27;100.00;96392.22;5010973;28;105436;-61
2023/06/07 04:25:54;;;;;;;6.43;5.23;;;;;;;13.28;100.00;96380.47;5011383;28;102253;-61
2023/06/07 04:28:24;;;;;;;6.40;5.00;;;;;;;13.22;100.00;96384.22;5011225;28;105415;-61
2023/06/07 04:30:53;;;;;;;5.33;4.83;;;;;;;13.19;100.00;96382.09;5011031;28;105403;-61
2023/06/07 04:33:21;;;;;;;5.50;5.00;;;;;;;13.31;100.00;96380.72;5011602;28;101912;-61
2023/06/07 04:35:50;;;;;;;5.57;4.97;;;;;;;13.46;100.00;96388.75;5011306;28;104930;-61
2023/06/07 04:38:21;;;;;;;5.00;4.60;;;;;;;13.57;100.00;96389.56;5010677;28;105863;-61
2023/06/07 04:40:50;;;;;;;5.30;4.80;;;;;;;13.70;100.00;96384.47;5011241;28;101792;-61
2023/06/07 04:43:28;;;;;;;5.43;4.93;;;;;;;13.59;100.00;96387.41;5013900;28;103831;-61
2023/06/07 04:45:55;;;;;;;4.90;4.50;;;;;;;13.50;100.00;96394.34;5011105;28;102399;-61
2023/06/07 04:48:27;;;;;;;4.60;4.20;;;;;;;13.59;100.00;96388.22;5010903;28;104909;-61
2023/06/07 04:51:03;;;;;;;5.40;4.90;;;;;;;13.57;100.00;96393.00;5010652;28;105515;-61
2023/06/07 04:53:34;;;;;;;5.20;4.70;;;;;;;13.79;100.00;96392.75;4994363;28;102006;-61
2023/06/07 04:56:02;;;;;;;7.77;5.00;;;;;;;13.70;100.00;96394.34;5011044;28;103579;-61
2023/06/07 04:58:31;;;;;;;5.70;5.13;;;;;;;13.71;100.00;96387.94;5010420;28;105373;-61
2023/06/07 05:01:00;;;;;;;5.33;4.83;;;;;;;13.91;100.00;96385.22;5010953;28;101861;-61
2023/06/07 05:03:28;;;;;;;5.40;4.90;;;;;;;13.96;100.00;96390.56;5013669;28;105466;-61
2023/06/07 05:06:00;;;;;;;5.80;5.17;;;;;;;14.13;100.00;96397.22;5010885;28;101953;-61
2023/06/07 05:08:29;;;;;;;5.40;4.90;;;;;;;14.15;100.00;96391.56;5010608;28;105527;-61
2023/06/07 05:10:56;;;;;;;6.53;5.13;;;;;;;14.02;100.00;96394.81;5010166;28;105001;-61
2023/06/07 05:13:23;;;;;;;5.47;5.00;;;;;;;14.26;100.00;96387.81;5010624;28;102177;-61
2023/06/07 05:15:52;;;;;;;5.73;5.23;;;;;;;14.22;100.00;96395.59;5010637;28;105018;-61
2023/06/07 05:18:20;;;;;;;6.23;5.30;;;;;;;14.22;100.00;96398.25;5010174;28;105064;-61
2023/06/07 05:20:49;;;;;;;5.20;4.80;;;;;;;14.50;100.00;96399.50;5010584;28;101937;-61
2023/06/07 05:23:16;;;;;;;5.53;5.07;;;;;;;14.53;100.00;96396.25;5010400;28;104882;-61
2023/06/07 05:25:45;;;;;;;6.03;5.43;;;;;;;14.71;100.00;96395.66;5013304;28;104415;-61
2023/06/07 05:28:13;;;;;;;5.50;5.00;;;;;;;14.51;100.00;96401.09;5010223;28;104737;-61
2023/06/07 05:30:43;;;;;;;5.77;5.27;;;;;;;14.63;100.00;96393.56;5009940;28;105512;-61
2023/06/07 05:33:12;;;;;;;5.47;5.00;;;;;;;14.81;100.00;96398.25;5010644;28;102248;-61
2023/06/07 05:35:44;;;;;;;6.00;5.23;;;;;;;14.92;100.00;96394.44;5010029;28;105960;-61
2023/06/07 05:38:12;;;;;;;7.03;5.07;;;;;;;15.15;100.00;96401.81;5009505;28;103759;-61
2023/06/07 05:40:38;;;;;;;5.60;5.10;;;;;;;15.11;100.00;96401.59;5010249;28;101975;-61
2023/06/07 05:43:06;;;;;;;6.10;5.03;;;;;;;15.34;100.00;96392.06;5010097;28;105458;-61
2023/06/07 05:45:33;;;;;;;5.63;4.87;;;;;;;15.43;100.00;96387.72;5008952;28;105097;-61
2023/06/07 05:48:01;;;;;;;6.07;5.47;;;;;;;15.32;100.00;96388.84;5013615;28;102124;-61
2023/06/07 05:50:33;;;;;;;5.40;4.90;;;;;;;15.53;100.00;96388.41;5009395;28;105390;-61
2023/06/07 05:53:00;;;;;;;5.47;4.97;;;;;;;15.64;100.00;96389.91;5011141;28;102139;-61
2023/06/07 05:55:28;;;;;;;5.20;4.80;;;;;;;15.75;100.00;96391.44;5011660;28;102429;-61
2023/06/07 05:57:57;;;;;;;5.03;4.60;;;;;;;15.75;100.00;96391.44;5011202;28;102963;-61
2023/06/07 06:00:24;;;;;;;5.27;4.77;;;;;;;15.73;100.00;96390.09;5011551;28;101840;-61
2023/06/07 06:02:52;;;;;;;5.93;5.07;;;;;;;15.95;100.00;96390.44;5011254;28;102354;-61
2023/06/07 06:05:20;;;;;;;7.07;4.93;;;;;;;16.10;100.00;96391.09;5010525;28;102804;-61
2023/06/07 06:07:49;;;;;;;5.20;4.80;;;;;;;16.17;100.00;96401.47;5011256;28;101699;-61
2023/06/07 06:10:16;;;;;;;6.20;4.80;;;;;;;16.37;100.00;96394.00;5014234;28;102322;-61
2023/06/07 06:12:42;;;;;;;5.80;5.20;;;;;;;16.55;100.00;96387.91;5009807;28;101996;-61
2023/06/07 06:15:10;;;;;;;5.53;4.70;;;;;;;16.50;100.00;96400.56;5009608;28;103908;-61
2023/06/07 06:17:38;;;;;;;5.57;5.07;;;;;;;16.62;100.00;96398.31;5010757;28;102764;-61
2023/06/07 06:20:07;;;;;;;5.23;4.80;;;;;;;16.70;100.00;96403.84;5009663;28;102026;-61
2023/06/07 06:22:34;;;;;;;5.00;4.50;;;;;;;17.01;100.00;96391.56;5009480;28;105097;-61
2023/06/07 06:25:03;;;;;;;5.17;4.60;;;;;;;17.22;100.00;96394.78;5009038;28;103805;-61
2023/06/07 06:27:30;;;;;;;4.67;4.27;;;;;;;17.20;100.00;96394.25;5009042;28;102056;-61
2023/06/07 06:29:57;;;;;;;4.93;4.53;;;;;;;17.24;100.00;96388.03;5009782;28;105086;-61
2023/06/07 06:32:23;;;;;;;4.47;4.07;;;;;;;17.66;100.00;96395.19;5012411;28;105118;-61
2023/06/07 06:34:50;;;;;;;5.13;4.73;;;;;;;17.85;100.00;96394.03;5009265;28;105448;-61
2023/06/07 06:37:17;;;;;;;4.90;4.03;;;;;;;18.06;100.00;96400.66;5008668;28;105733;-61
2023/06/07 06:39:46;;;;;;;4.90;4.40;;;;;;;18.07;100.00;96393.38;5009465;28;101967;-61
2023/06/07 06:42:15;;;;;;;6.00;4.10;;;;;;;18.08;100.00;96394.97;5009438;28;105086;-61
2023/06/07 06:45:00;;;;;;;4.80;4.40;;;;;;;17.84;100.00;96392.44;5009339;28;101890;-61
2023/06/07 06:47:27;;;;;;;6.40;5.10;;;;;;;17.93;100.00;96395.25;5008955;28;101859;-61
2023/06/07 06:49:54;;;;;;;4.30;4.00;;;;;;;18.24;100.00;96398.97;5009109;28;105119;-61
2023/06/07 06:52:21;;;;;;;4.50;4.10;;;;;;;18.24;100.00;96393.59;5008674;28;105147;-61
2023/06/07 06:54:48;;;;;;;4.67;4.27;;;;;;;18.59;100.00;96399.09;5012661;28;102200;-61
2023/06/07 06:57:16;;;;;;;4.63;4.07;;;;;;;18.87;100.00;96399.88;5008426;28;104334;-61
2023/06/07 06:59:43;;;;;;;4.70;4.03;;;;;;;18.72;100.00;96392.09;5008952;28;102293;-61
2023/06/07 07:02:10;;;;;;;4.30;3.90;;;;;;;18.82;100.00;96398.09;5009229;28;103622;-61
2023/06/07 07:04:37;;;;;;;5.17;3.90;;;;;;;18.99;100.00;96400.16;5008238;28;103897;-61
2023/06/07 07:07:04;;;;;;;4.67;4.23;;;;;;;18.53;100.00;96399.53;5009285;28;101865;-61
2023/06/07 07:09:31;;;;;;;4.87;4.23;;;;;;;18.43;100.00;96399.72;5008881;28;105120;-61
2023/06/07 07:11:58;;;;;;;4.90;4.40;;;;;;;18.84;100.00;96406.66;5008032;28;105432;-61
2023/06/07 07:14:26;;;;;;;5.20;4.50;;;;;;;19.24;100.00;96407.72;5012081;28;101963;-61
2023/06/07 07:16:54;;;;;;;7.93;4.77;;;;;;;18.90;100.00;96402.75;5008171;28;104025;-61
2023/06/07 07:19:21;;;;;;;4.80;4.30;;;;;;;19.06;100.00;96395.94;5008976;28;102176;-61
2023/06/07 07:21:47;;;;;;;7.50;4.23;;;;;;;19.51;100.00;96397.63;5008489;28;105140;-61
2023/06/07 07:24:14;;;;;;;6.53;4.03;;;;;;;19.70;100.00;96398.25;5007996;28;105450;-61
2023/06/07 07:26:41;;;;;;;6.57;4.73;;;;;;;19.64;100.00;96391.38;5010271;28;101860;-61
2023/06/07 07:29:08;;;;;;;6.23;4.30;;;;;;;19.97;100.00;96392.69;5008663;28;105300;-61
2023/06/07 07:31:36;;;;;;;5.00;4.50;;;;;;;20.28;100.00;96398.91;5007929;28;105759;-61
2023/06/07 07:34:04;;;;;;;5.97;4.30;;;;;;;20.25;100.00;96386.03;5008536;28;101968;-61
2023/06/07 07:36:33;;;;;;;4.80;4.10;;;;;;;20.38;100.00;96387.06;5011156;28;105471;-61
2023/06/07 07:39:04;;;;;;;4.70;4.10;;;;;;;20.48;100.00;96384.06;5008771;28;102108;-61
2023/06/07 07:41:31;;;;;;;4.50;4.10;;;;;;;20.57;100.00;96393.00;5011554;28;105358;-61
2023/06/07 07:43:58;;;;;;;4.67;4.10;;;;;;;20.28;100.00;96392.72;5010813;28;105499;-61
2023/06/07 07:46:25;;;;;;;6.70;4.33;;;;;;;20.60;100.00;96385.03;5012172;28;101827;-61
2023/06/07 07:48:53;;;;;;;5.30;4.17;;;;;;;20.42;100.00;96380.69;5013681;28;102287;-61
2023/06/07 07:51:20;;;;;;;4.97;4.10;;;;;;;20.68;100.00;96380.78;5011262;28;103964;-61
2023/06/07 07:53:48;;;;;;;5.93;3.97;;;;;;;20.90;100.00;96384.22;5012091;28;101877;-61
2023/06/07 07:56:15;;;;;;;6.37;4.17;;;;;;;21.12;100.00;96377.88;5011913;28;105098;-61
2023/06/07 07:58:42;;;;;;;6.20;3.50;;;;;;;21.33;100.00;96376.94;5014859;28;104384;-61
2023/06/07 08:01:09;;;;;;;6.93;4.10;;;;;;;21.65;100.00;96373.75;5011504;28;105045;-61
2023/06/07 08:03:36;;;;;;;6.37;3.80;;;;;;;21.69;100.00;96368.50;5011229;28;105257;-61
2023/06/07 08:06:05;;;;;;;5.90;4.70;;;;;;;21.21;100.00;96371.34;5011742;28;101991;-61
2023/06/07 08:08:32;;;;;;;5.97;4.20;;;;;;;21.57;100.00;96368.34;5013362;28;102385;-61
2023/06/07 08:11:00;;;;;;;4.80;4.20;;;;;;;21.92;100.00;96375.31;5010886;28;105718;-61
2023/06/07 08:13:27;;;;;;;4.00;3.60;;;;;;;22.24;100.00;96366.59;5012962;28;101749;-61
2023/06/07 08:15:53;;;;;;;6.97;4.10;;;;;;;22.28;100.00;96379.19;5013035;28;102346;-61
2023/06/07 08:18:20;;;;;;;7.00;4.50;;;;;;;21.70;100.00;96370.09;5011116;28;103764;-61
2023/06/07 08:20:47;;;;;;;6.43;4.20;;;;;;;21.96;100.00;96373.56;5015121;28;101935;-61
2023/06/07 08:23:16;;;;;;;4.27;3.87;;;;;;;22.20;100.00;96368.38;5010486;28;104379;-61
2023/06/07 08:25:43;;;;;;;4.37;3.87;;;;;;;21.64;100.00;96376.75;5011596;28;101947;-61
2023/06/07 08:28:09;;;;;;;4.20;2.97;;;;;;;21.41;100.00;96369.94;5011396;28;105060;-61
2023/06/07 08:30:36;;;;;;;3.10;2.80;;;;;;;22.04;100.00;96372.72;5010605;28;105195;-61
2023/06/07 08:33:03;;;;;;;5.47;3.20;;;;;;;22.17;100.00;96358.19;5011119;28;102032;-61
2023/06/07 08:35:30;;;;;;;2.60;2.10;;;;;;;21.40;100.00;96363.72;5012694;28;102576;-61
2023/06/07 08:37:57;;;;;;;3.17;2.67;;;;;;;21.81;95.17;96365.94;5010752;28;105327;-61
2023/06/07 08:40:27;;;;;;;2.70;2.50;;;;;;;22.57;100.00;96368.38;5011257;28;101889;-61
2023/06/07 08:42:54;;;;;;;3.70;2.80;;;;;;;22.94;100.00;96374.91;5013867;28;104014;-61
2023/06/07 08:45:21;;;;;;;2.60;2.40;;;;;;;22.77;83.05;96375.00;5010225;28;101961;-61
2023/06/07 08:47:50;;;;;;;2.40;2.20;;;;;;;22.84;96.75;96367.16;5011201;28;104822;-61
2023/06/07 08:50:22;;;;;;;2.67;2.47;;;;;;;22.66;79.91;96371.88;5010465;28;104019;-61
2023/06/07 08:52:52;;;;;;;3.53;2.57;;;;;;;22.49;81.77;96368.44;5010867;28;101979;-61
2023/06/07 08:55:20;;;;;;;2.80;2.60;;;;;;;23.00;85.58;96377.06;5010852;28;103962;-61
2023/06/07 08:57:51;;;;;;;2.50;2.30;;;;;;;22.44;70.83;96374.03;5010459;28;105220;-61
2023/06/07 09:00:22;;;;;;;2.60;2.40;;;;;;;22.59;81.22;96370.78;5010941;28;101844;-61
2023/06/07 09:02:52;;;;;;;3.03;2.60;;;;;;;23.39;90.27;96373.16;5012536;28;102355;-61
2023/06/07 09:05:20;;;;;;;4.33;2.93;;;;;;;23.74;83.95;96369.00;5013123;28;101832;-61
2023/06/07 09:07:47;;;;;;;6.07;3.10;;;;;;;23.82;77.75;96363.50;5012410;28;102596;-61
2023/06/07 09:10:17;;;;;;;4.03;3.20;;;;;;;23.68;72.36;96367.63;5011606;28;102682;-61
2023/06/07 09:12:45;;;;;;;4.83;3.20;;;;;;;23.82;74.75;96363.50;5012358;28;101943;-61
2023/06/07 09:15:16;;;;;;;4.13;2.77;;;;;;;24.09;71.01;96364.88;5010560;28;106045;-61
2023/06/07 09:18:02;;;;;;;3.53;3.20;;;;;;;24.05;72.97;96362.03;5010092;28;105394;-61
2023/06/07 09:20:31;;;;;;;3.33;3.03;;;;;;;23.82;77.66;96363.50;5010795;28;101941;-61
2023/06/07 09:22:59;;;;;;;5.27;3.20;;;;;;;24.08;84.67;96357.84;5010544;28;102586;-61
2023/06/07 09:25:27;;;;;;;4.43;3.00;;;;;;;24.21;73.99;96362.16;5013508;28;105610;-61
2023/06/07 09:27:54;;;;;;;3.20;2.87;;;;;;;24.17;73.78;96363.97;5010432;28;105048;-61
2023/06/07 09:30:22;;;;;;;3.33;2.50;;;;;;;24.52;74.82;96363.22;5009869;28;105412;-61
2023/06/07 09:32:49;;;;;;;3.70;3.03;;;;;;;24.63;72.70;96360.88;5010326;28;101887;-61
2023/06/07 09:35:18;;;;;;;3.70;3.40;;;;;;;24.06;69.16;96362.81;5010306;28;104655;-61
2023/06/07 09:37:47;;;;;;;3.37;2.87;;;;;;;24.29;66.45;96353.09;5011465;28;103125;-61
2023/06/07 09:40:15;;;;;;;3.67;3.07;;;;;;;24.45;70.14;96357.53;5010089;28;101898;-61
2023/06/07 09:42:42;;;;;;;3.97;3.50;;;;;;;23.47;84.40;96361.44;5010185;28;105085;-61
2023/06/07 09:45:13;;;;;;;3.60;3.30;;;;;;;24.09;92.86;96354.78;5008929;28;105404;-61
2023/06/07 09:47:43;;;;;;;4.97;2.60;;;;;;;24.84;81.17;96347.97;5013666;28;101826;-61
2023/06/07 09:50:12;;;;;;;2.97;2.77;;;;;;;25.18;75.83;96342.78;5009610;28;105060;-61
2023/06/07 09:52:39;;;;;;;4.10;3.00;;;;;;;25.57;66.43;96347.47;5011272;28;101816;-61
2023/06/07 09:55:07;;;;;;;4.33;3.00;;;;;;;25.50;64.17;96349.97;5010046;28;105750;-61
2023/06/07 09:57:36;;;;;;;3.00;2.70;;;;;;;23.88;71.96;96343.19;5009484;28;103900;-61
2023/06/07 10:00:13;;;;;;;3.77;2.80;;;;;;;24.81;68.76;96348.63;5011228;28;101824;-61
2023/06/07 10:02:46;;;;;;;2.90;2.60;;;;;;;25.24;66.63;96337.91;5007746;28;102145;-61
2023/06/07 10:05:15;;;;;;;4.43;2.67;;;;;;;24.86;63.72;96343.75;5010853;28;102535;-61
2023/06/07 10:07:46;;;;;;;4.50;2.50;;;;;;;24.80;61.72;96334.22;5011290;28;101880;-61
2023/06/07 10:10:17;;;;;;;2.40;2.20;;;;;;;24.72;61.77;96331.63;5014233;28;102571;-61
2023/06/07 10:12:48;;;;;;;3.37;2.50;;;;;;;24.57;58.42;96337.75;5011357;28;101759;-61
2023/06/07 10:15:19;;;;;;;2.60;2.40;;;;;;;24.67;57.81;96334.56;5009848;28;105478;-61
2023/06/07 10:17:51;;;;;;;3.70;2.73;;;;;;;24.72;67.00;96335.16;5010835;28;103031;-61
2023/06/07 10:20:25;;;;;;;2.90;2.70;;;;;;;24.34;54.97;96331.13;5009611;28;101794;-61
2023/06/07 10:22:57;;;;;;;3.53;2.30;;;;;;;25.41;53.74;96332.19;5010923;28;102705;-61
2023/06/07 10:25:29;;;;;;;4.87;2.30;;;;;;;24.56;50.00;96333.41;5008986;28;105107;-61
2023/06/07 10:28:06;;;;;;;2.50;2.30;;;;;;;25.03;50.26;96339.97;5009556;28;101875;-61
2023/06/07 10:30:36;;;;;;;2.50;2.30;;;;;;;24.59;47.37;96336.28;5009490;28;104728;-61
2023/06/07 10:33:05;;;;;;;2.63;2.43;;;;;;;24.42;46.52;96335.69;5013704;28;103164;-61
2023/06/07 10:35:32;;;;;;;2.43;2.23;;;;;;;24.72;46.82;96332.44;5010686;28;102617;-61
2023/06/07 10:37:59;;;;;;;2.60;2.40;;;;;;;25.16;45.32;96322.47;5008806;28;105194;-61
2023/06/07 10:40:26;;;;;;;4.60;2.50;;;;;;;25.57;44.10;96333.03;5009452;28;102198;-61
2023/06/07 10:42:57;;;;;;;2.80;2.27;;;;;;;25.07;44.15;96321.84;5009495;28;103476;-61
2023/06/07 10:45:25;;;;;;;2.50;2.30;;;;;;;25.71;44.08;96323.31;5007699;28;106341;-61
2023/06/07 10:47:51;;;;;;;2.60;2.40;;;;;;;25.16;42.29;96325.19;5009392;28;101816;-61
2023/06/07 10:50:48;;;;;;;2.67;2.47;;;;;;;25.03;41.57;96318.22;5009068;28;105181;-61
2023/06/07 10:53:16;;;;;;;2.60;2.37;;;;;;;26.25;41.57;96320.88;5008686;28;101978;-61
2023/06/07 10:55:44;;;;;;;2.67;2.30;;;;;;;26.18;39.47;96318.78;5013915;28;101790;-61
2023/06/07 10:58:27;;;;;;;2.40;2.20;;;;;;;26.02;39.59;96322.63;5008503;28;105437;-61
2023/06/07 11:00:57;;;;;;;3.27;2.50;;;;;;;25.32;38.08;96321.44;5009105;28;101918;-61
2023/06/07 11:03:51;;;;;;;3.60;2.70;;;;;;;25.58;37.50;96324.53;5008837;28;105447;-61
2023/06/07 11:06:19;;;;;;;2.50;2.30;;;;;;;25.87;38.07;96321.44;5008326;28;105288;-61
2023/06/07 11:08:46;;;;;;;2.60;2.40;;;;;;;25.38;36.69;96324.69;5010661;28;101950;-61
2023/06/07 11:11:49;;;;;;;3.00;2.70;;;;;;;25.20;36.49;96326.09;5008920;28;105253;-61
2023/06/07 11:14:16;;;;;;;2.30;2.10;;;;;;;25.88;35.55;96323.00;5009504;28;103281;-61
2023/06/07 11:16:43;;;;;;;2.60;2.40;;;;;;;25.03;36.52;96318.22;5012242;28;101846;-61
2023/06/07 11:19:13;;;;;;;4.17;2.30;;;;;;;24.98;37.29;96310.28;5008241;28;105179;-61
2023/06/07 11:22:06;;;;;;;2.23;2.03;;;;;;;25.26;36.34;96316.59;5008671;28;102012;-61
2023/06/07 11:24:36;;;;;;;3.17;2.43;;;;;;;26.08;35.67;96311.13;5008698;28;103704;-61
2023/06/07 11:27:09;;;;;;;3.33;2.50;;;;;;;25.78;35.47;96311.84;5008360;28;103833;-61